Time;durP1;ratioP1;P1;durP2;ratioP2;P2;SDS_P1;SDS_P2;PMS_P1;PMS_P2;Temp;Humidity;BMP_temperature;BMP_pressure;BME280_temperature;BME280_humidity;BME280_pressure;Samples;Min_cycle;Max_cycle;Signal;HPM_P1;HPM_P2
2021/01/17 00:00:32;;;;;;;25.60;18.00;;;0.50;99.90;;;;;;4958832;28;20473;-77
2021/01/17 00:02:58;;;;;;;27.38;16.83;;;0.60;99.90;;;;;;4990796;28;20992;-77
2021/01/17 00:05:25;;;;;;;23.60;15.43;;;0.60;99.90;;;;;;4991889;28;20221;-77
2021/01/17 00:07:51;;;;;;;27.13;16.85;;;0.50;99.90;;;;;;4990813;28;20215;-76
2021/01/17 00:10:23;;;;;;;27.85;18.15;;;0.60;99.90;;;;;;4991628;28;20198;-76
2021/01/17 00:12:49;;;;;;;27.60;15.65;;;0.60;99.90;;;;;;4989441;28;20724;-77
2021/01/17 00:15:16;;;;;;;28.15;16.38;;;0.50;99.90;;;;;;4989808;28;20198;-77
2021/01/17 00:17:44;;;;;;;28.33;17.48;;;0.50;99.90;;;;;;4990720;28;20273;-78
2021/01/17 00:20:11;;;;;;;26.65;15.57;;;0.50;99.90;;;;;;4976375;28;20260;-78
2021/01/17 00:22:38;;;;;;;24.67;16.48;;;0.50;99.90;;;;;;4994961;28;20612;-77
2021/01/17 00:25:05;;;;;;;24.23;15.63;;;0.50;99.90;;;;;;4976864;28;20233;-77
2021/01/17 00:27:31;;;;;;;22.13;14.80;;;0.50;99.90;;;;;;4994446;28;20636;-77
2021/01/17 00:29:56;;;;;;;23.40;15.73;;;0.50;99.90;;;;;;4994899;28;20222;-77
2021/01/17 00:32:22;;;;;;;27.03;16.30;;;0.50;99.90;;;;;;4994529;28;20225;-77
2021/01/17 00:34:48;;;;;;;28.50;14.93;;;0.50;99.90;;;;;;4994196;28;20205;-76
2021/01/17 00:37:17;;;;;;;24.00;15.50;;;0.50;99.90;;;;;;4995129;28;20280;-76
2021/01/17 00:39:43;;;;;;;22.20;14.68;;;0.50;99.90;;;;;;4995036;28;20256;-76
2021/01/17 00:42:14;;;;;;;24.23;14.60;;;0.50;99.90;;;;;;4994674;28;20273;-77
2021/01/17 00:44:40;;;;;;;18.75;12.43;;;0.40;99.90;;;;;;4995024;28;20222;-76
2021/01/17 00:47:06;;;;;;;24.08;14.77;;;0.40;99.90;;;;;;4994429;28;20221;-77
2021/01/17 00:49:32;;;;;;;24.60;15.00;;;0.40;99.90;;;;;;4977512;28;20214;-77
2021/01/17 00:51:58;;;;;;;23.83;14.85;;;0.40;99.90;;;;;;4994157;28;20222;-76
2021/01/17 00:54:23;;;;;;;21.30;15.60;;;0.40;99.90;;;;;;4995067;28;20621;-76
2021/01/17 00:56:49;;;;;;;21.50;14.93;;;0.40;99.90;;;;;;4994257;28;20441;-77
2021/01/17 00:59:15;;;;;;;23.10;15.43;;;0.30;99.90;;;;;;4977272;28;20248;-77
2021/01/17 01:01:42;;;;;;;23.80;15.37;;;0.30;99.90;;;;;;4994354;28;20190;-76
2021/01/17 01:04:09;;;;;;;23.17;15.98;;;0.30;99.90;;;;;;4994717;28;20236;-77
2021/01/17 01:06:36;;;;;;;21.20;14.38;;;0.30;99.90;;;;;;4993886;28;20253;-77
2021/01/17 01:09:14;;;;;;;21.38;14.70;;;0.30;99.90;;;;;;4994453;28;20201;-77
2021/01/17 01:11:40;;;;;;;24.83;16.08;;;0.30;99.90;;;;;;4977175;28;20221;-77
2021/01/17 01:14:07;;;;;;;22.35;14.63;;;0.30;99.90;;;;;;4994220;28;20223;-77
2021/01/17 01:16:33;;;;;;;23.67;14.75;;;0.30;99.90;;;;;;4993455;28;20177;-78
2021/01/17 01:19:00;;;;;;;21.27;14.55;;;0.30;99.90;;;;;;4993905;28;20358;-77
2021/01/17 01:21:30;;;;;;;25.70;16.77;;;0.30;99.90;;;;;;4992561;28;20687;-77
2021/01/17 01:23:57;;;;;;;25.63;15.82;;;0.40;99.90;;;;;;4993191;28;20577;-77
2021/01/17 01:26:23;;;;;;;22.65;14.52;;;0.40;99.90;;;;;;4993573;28;20619;-78
2021/01/17 01:28:49;;;;;;;26.15;16.60;;;0.40;99.90;;;;;;4991754;28;20225;-77
2021/01/17 01:31:22;;;;;;;24.85;15.32;;;0.50;99.90;;;;;;4992759;28;20251;-77
2021/01/17 01:33:49;;;;;;;21.00;14.57;;;0.60;99.90;;;;;;4992511;28;20212;-77
2021/01/17 01:36:21;;;;;;;18.83;12.75;;;0.50;99.90;;;;;;4993419;28;20205;-77
2021/01/17 01:38:49;;;;;;;21.45;14.25;;;0.60;99.90;;;;;;4992820;28;20293;-78
2021/01/17 01:41:15;;;;;;;24.35;15.68;;;0.60;99.90;;;;;;4993830;28;20252;-77
2021/01/17 01:43:42;;;;;;;23.08;14.93;;;0.60;99.90;;;;;;4974975;28;20210;-77
2021/01/17 01:46:14;;;;;;;23.65;15.50;;;0.60;99.90;;;;;;4975834;28;20202;-77
2021/01/17 01:48:41;;;;;;;22.98;14.88;;;0.60;99.90;;;;;;4992835;28;20617;-78
2021/01/17 01:51:07;;;;;;;24.58;14.70;;;0.50;99.90;;;;;;4993605;28;20206;-77
2021/01/17 01:53:33;;;;;;;27.10;15.87;;;0.60;99.90;;;;;;4992725;28;20207;-77
2021/01/17 01:56:00;;;;;;;21.07;13.77;;;0.60;99.90;;;;;;4993618;28;20421;-77
2021/01/17 01:58:27;;;;;;;25.63;14.65;;;0.70;99.90;;;;;;4992722;28;20211;-77
2021/01/17 02:00:53;;;;;;;22.65;14.57;;;0.60;99.90;;;;;;4993336;28;20187;-78
2021/01/17 02:03:19;;;;;;;25.08;14.90;;;0.60;99.90;;;;;;4974925;28;20221;-77
2021/01/17 02:05:45;;;;;;;23.03;13.93;;;0.60;99.90;;;;;;4991874;28;20191;-77
2021/01/17 02:08:55;;;;;;;20.60;15.70;;;0.60;99.90;;;;;;4992775;28;20507;-78
2021/01/17 02:11:48;;;;;;;28.95;16.65;;;0.60;99.90;;;;;;4993145;28;20206;-78
2021/01/17 02:14:19;;;;;;;22.65;14.63;;;0.60;99.90;;;;;;4992558;28;20297;-77
2021/01/17 02:16:46;;;;;;;21.17;14.05;;;0.60;99.90;;;;;;4992176;28;20237;-78
2021/01/17 02:19:15;;;;;;;25.17;15.27;;;0.60;99.90;;;;;;4975132;28;20537;-78
2021/01/17 02:21:53;;;;;;;24.02;14.68;;;0.60;99.90;;;;;;4992155;28;20249;-78
2021/01/17 02:24:29;;;;;;;23.25;14.63;;;0.60;99.90;;;;;;4992828;28;20700;-77
2021/01/17 02:27:02;;;;;;;22.88;14.63;;;0.70;99.90;;;;;;4991978;28;20218;-78
2021/01/17 02:29:28;;;;;;;21.75;14.02;;;0.70;99.90;;;;;;4992671;28;20590;-77
2021/01/17 02:31:58;;;;;;;21.02;14.95;;;0.70;99.90;;;;;;4991757;28;20589;-77
2021/01/17 02:34:26;;;;;;;23.33;14.95;;;0.60;99.90;;;;;;4992447;28;20194;-77
2021/01/17 02:37:29;;;;;;;20.52;13.93;;;0.60;99.90;;;;;;4974280;28;20238;-77
2021/01/17 02:40:24;;;;;;;24.95;14.35;;;0.60;99.90;;;;;;4991790;28;20673;-78
2021/01/17 02:42:51;;;;;;;22.73;13.88;;;0.60;99.90;;;;;;4991418;28;20297;-77
2021/01/17 02:45:17;;;;;;;23.67;14.52;;;0.60;99.90;;;;;;4992065;28;20205;-77
2021/01/17 02:47:43;;;;;;;24.55;14.57;;;0.60;99.90;;;;;;4990842;28;20229;-78
2021/01/17 02:50:09;;;;;;;20.30;15.90;;;0.70;99.90;;;;;;4991931;28;20683;-77
2021/01/17 02:52:44;;;;;;;25.23;15.15;;;0.70;99.90;;;;;;4974159;28;20249;-77
2021/01/17 02:55:10;;;;;;;22.48;14.50;;;0.70;99.90;;;;;;4991627;28;20194;-78
2021/01/17 02:57:39;;;;;;;24.92;15.18;;;0.60;99.90;;;;;;4991609;28;20211;-77
2021/01/17 03:00:09;;;;;;;23.52;14.90;;;0.70;99.90;;;;;;4990486;28;20205;-77
2021/01/17 03:02:47;;;;;;;24.40;16.77;;;0.70;99.90;;;;;;4991742;28;20214;-77
2021/01/17 03:05:17;;;;;;;21.08;13.60;;;0.80;99.90;;;;;;4991590;28;20289;-77
2021/01/17 03:07:48;;;;;;;24.20;13.73;;;0.80;99.90;;;;;;4991731;28;20210;-77
2021/01/17 03:10:14;;;;;;;22.55;14.95;;;0.70;99.90;;;;;;4992240;28;20186;-77
2021/01/17 03:12:40;;;;;;;19.48;14.15;;;0.80;99.90;;;;;;4991530;28;20290;-77
2021/01/17 03:15:07;;;;;;;20.77;13.50;;;0.80;99.90;;;;;;4991923;28;20206;-78
2021/01/17 03:17:33;;;;;;;27.52;15.50;;;0.70;99.90;;;;;;4991562;28;20293;-77
2021/01/17 03:19:59;;;;;;;22.63;14.13;;;0.70;99.90;;;;;;4974337;28;20237;-77
2021/01/17 03:22:25;;;;;;;24.33;15.30;;;0.70;99.90;;;;;;4991543;28;20709;-77
2021/01/17 03:24:50;;;;;;;21.50;13.80;;;0.70;99.90;;;;;;4991616;28;20205;-77
2021/01/17 03:27:16;;;;;;;24.87;15.07;;;0.70;99.90;;;;;;4991325;28;20453;-77
2021/01/17 03:29:42;;;;;;;24.57;15.57;;;0.70;99.90;;;;;;4991634;28;20441;-78
2021/01/17 03:32:08;;;;;;;19.50;13.27;;;0.80;99.90;;;;;;4991214;28;20454;-77
2021/01/17 03:34:34;;;;;;;19.77;13.70;;;0.80;99.90;;;;;;4973931;28;20609;-77
2021/01/17 03:37:00;;;;;;;21.50;14.20;;;0.80;99.90;;;;;;4991768;28;20472;-77
2021/01/17 03:39:26;;;;;;;21.45;14.93;;;0.80;99.90;;;;;;4991981;28;20241;-77
2021/01/17 03:41:51;;;;;;;24.80;15.07;;;0.80;99.90;;;;;;4990563;28;20242;-77
2021/01/17 03:44:17;;;;;;;23.70;15.27;;;0.80;99.90;;;;;;4992307;28;20194;-77
2021/01/17 03:46:43;;;;;;;20.23;15.63;;;0.80;99.90;;;;;;4991324;28;20508;-77
2021/01/17 03:49:09;;;;;;;23.33;14.37;;;0.80;99.90;;;;;;4990110;28;20183;-77
2021/01/17 03:51:34;;;;;;;19.87;13.07;;;0.80;99.90;;;;;;4990056;28;20229;-77
2021/01/17 03:54:00;;;;;;;25.17;15.70;;;0.70;99.90;;;;;;4993148;28;20190;-77
2021/01/17 03:56:26;;;;;;;21.03;15.20;;;0.70;99.90;;;;;;4995553;28;20229;-77
2021/01/17 03:58:52;;;;;;;22.48;13.68;;;0.80;99.90;;;;;;4994868;28;20206;-77
2021/01/17 04:01:17;;;;;;;20.47;14.17;;;0.80;99.90;;;;;;4995363;28;20241;-78
2021/01/17 04:03:44;;;;;;;18.53;13.50;;;0.80;99.90;;;;;;4999500;28;20229;-78
2021/01/17 04:06:10;;;;;;;26.83;17.13;;;0.80;99.90;;;;;;5003060;28;20209;-78
2021/01/17 04:08:35;;;;;;;23.07;14.73;;;0.80;99.90;;;;;;4994742;28;20207;-78
2021/01/17 04:11:01;;;;;;;22.53;14.63;;;0.90;99.90;;;;;;4995228;28;20198;-77
2021/01/17 04:13:27;;;;;;;20.27;14.50;;;0.90;99.90;;;;;;4994432;28;20214;-77
2021/01/17 04:15:52;;;;;;;19.30;12.73;;;0.90;99.90;;;;;;4994844;28;20495;-77
2021/01/17 04:18:18;;;;;;;19.47;13.87;;;0.80;99.90;;;;;;4994271;28;20233;-77
2021/01/17 04:20:44;;;;;;;17.83;13.97;;;0.80;99.90;;;;;;4995185;28;20265;-78
2021/01/17 04:23:10;;;;;;;22.80;14.50;;;0.80;99.90;;;;;;4994162;28;20278;-78
2021/01/17 04:25:36;;;;;;;22.67;14.75;;;0.80;99.90;;;;;;4994821;28;20221;-78
2021/01/17 04:28:01;;;;;;;25.53;15.53;;;0.80;99.90;;;;;;4994226;28;20242;-78
2021/01/17 04:30:31;;;;;;;21.77;14.77;;;0.70;99.90;;;;;;4977448;28;20440;-77
2021/01/17 04:32:57;;;;;;;25.02;14.10;;;0.70;99.90;;;;;;4994385;28;20215;-77
2021/01/17 04:35:23;;;;;;;26.40;14.60;;;0.70;99.90;;;;;;4994564;28;20229;-77
2021/01/17 04:37:49;;;;;;;25.25;15.60;;;0.80;99.90;;;;;;4994259;28;20222;-77
2021/01/17 04:40:19;;;;;;;23.63;13.80;;;0.80;99.90;;;;;;4994519;28;20215;-78
2021/01/17 04:42:48;;;;;;;26.35;15.25;;;0.70;99.90;;;;;;4994107;28;20214;-78
2021/01/17 04:45:17;;;;;;;22.52;14.07;;;0.70;99.90;;;;;;4994301;28;20205;-78
2021/01/17 04:47:47;;;;;;;19.27;14.38;;;0.70;99.90;;;;;;4994097;28;20214;-77
2021/01/17 04:50:16;;;;;;;24.83;15.27;;;0.70;99.90;;;;;;4994215;28;20246;-77
2021/01/17 04:53:07;;;;;;;23.27;15.02;;;0.60;99.90;;;;;;4993584;28;20225;-77
2021/01/17 04:55:38;;;;;;;24.45;15.43;;;0.60;99.90;;;;;;4994375;28;20194;-78
2021/01/17 04:58:19;;;;;;;22.55;15.25;;;0.60;99.90;;;;;;4993741;28;20222;-77
2021/01/17 05:00:58;;;;;;;26.30;15.25;;;0.70;99.90;;;;;;4994261;28;20284;-78
2021/01/17 05:03:26;;;;;;;22.02;14.55;;;0.70;99.90;;;;;;4993621;28;20297;-77
2021/01/17 05:06:15;;;;;;;23.10;14.23;;;0.70;99.90;;;;;;4991429;28;20186;-77
2021/01/17 05:08:58;;;;;;;25.73;15.82;;;0.70;99.90;;;;;;4978209;28;20203;-77
2021/01/17 05:11:41;;;;;;;20.98;14.40;;;0.70;99.90;;;;;;4993845;28;20205;-77
2021/01/17 05:14:13;;;;;;;21.67;14.57;;;0.70;99.90;;;;;;4993827;28;20201;-77
2021/01/17 05:16:44;;;;;;;23.92;14.70;;;0.70;99.90;;;;;;4993281;28;20183;-77
2021/01/17 05:19:20;;;;;;;22.90;14.60;;;0.80;99.90;;;;;;4994271;28;20166;-77
2021/01/17 05:21:46;;;;;;;24.00;14.45;;;0.80;99.90;;;;;;4993720;28;20272;-77
2021/01/17 05:24:13;;;;;;;22.77;14.63;;;0.80;99.90;;;;;;4994208;28;20693;-77
2021/01/17 05:26:42;;;;;;;22.67;14.02;;;0.90;99.90;;;;;;4993421;28;20306;-77
2021/01/17 05:29:08;;;;;;;18.90;13.32;;;0.80;99.90;;;;;;4993938;28;20171;-77
2021/01/17 05:31:34;;;;;;;20.58;14.07;;;0.90;99.90;;;;;;4993384;28;20276;-78
2021/01/17 05:34:00;;;;;;;23.15;14.07;;;0.90;99.90;;;;;;4994495;28;20186;-77
2021/01/17 05:36:27;;;;;;;21.33;13.63;;;0.90;99.90;;;;;;4993121;28;20194;-78
2021/01/17 05:39:04;;;;;;;19.63;13.52;;;0.90;99.90;;;;;;4993083;28;20567;-78
2021/01/17 05:41:30;;;;;;;27.63;15.23;;;0.90;99.90;;;;;;4992682;28;20719;-78
2021/01/17 05:43:55;;;;;;;23.17;14.20;;;0.90;99.90;;;;;;4993769;28;20194;-78
2021/01/17 05:46:21;;;;;;;20.40;14.40;;;0.90;99.90;;;;;;4993356;28;20194;-77
2021/01/17 05:48:47;;;;;;;23.20;14.30;;;0.90;99.90;;;;;;4992889;28;20306;-78
2021/01/17 05:51:27;;;;;;;21.87;13.97;;;0.90;99.90;;;;;;4993495;28;20681;-78
2021/01/17 05:53:54;;;;;;;21.63;14.98;;;0.90;99.90;;;;;;4993308;28;20220;-77
2021/01/17 05:56:21;;;;;;;21.80;13.95;;;0.90;99.90;;;;;;4993540;28;20565;-78
2021/01/17 05:58:47;;;;;;;26.33;13.90;;;0.90;99.90;;;;;;4992105;28;20207;-78
2021/01/17 06:01:17;;;;;;;21.80;15.17;;;0.80;99.90;;;;;;4993422;28;20202;-78
2021/01/17 06:03:51;;;;;;;25.50;14.60;;;0.80;99.90;;;;;;4992436;28;20221;-78
2021/01/17 06:06:30;;;;;;;19.45;12.70;;;0.90;99.90;;;;;;4993205;28;20601;-77
2021/01/17 06:08:57;;;;;;;22.13;14.40;;;0.90;99.90;;;;;;4992912;28;20475;-77
2021/01/17 06:11:24;;;;;;;25.58;17.52;;;0.90;99.90;;;;;;4993079;28;20206;-77
2021/01/17 06:13:58;;;;;;;33.10;16.83;;;0.90;99.90;;;;;;4992442;28;20301;-77
2021/01/17 06:16:23;;;;;;;26.38;16.30;;;0.80;99.90;;;;;;4992973;28;20191;-77
2021/01/17 06:18:57;;;;;;;23.60;15.20;;;0.90;99.90;;;;;;4974949;28;20634;-77
2021/01/17 06:21:27;;;;;;;23.27;15.75;;;0.90;99.90;;;;;;4993203;28;20191;-77
2021/01/17 06:23:59;;;;;;;20.63;13.52;;;0.90;99.90;;;;;;4992720;28;20202;-77
2021/01/17 06:26:29;;;;;;;17.00;12.75;;;0.90;99.90;;;;;;4991441;28;20203;-78
2021/01/17 06:28:56;;;;;;;20.35;14.15;;;0.90;99.90;;;;;;4991340;28;20242;-78
2021/01/17 06:31:29;;;;;;;23.65;14.93;;;0.90;99.90;;;;;;4991566;28;20217;-78
2021/01/17 06:34:08;;;;;;;24.02;15.80;;;0.80;99.90;;;;;;4990924;28;20218;-78
2021/01/17 06:36:36;;;;;;;22.85;14.75;;;0.90;99.90;;;;;;4990661;28;20198;-78
2021/01/17 06:39:02;;;;;;;24.67;15.32;;;0.90;99.90;;;;;;4974364;28;20186;-77
2021/01/17 06:41:35;;;;;;;26.92;16.50;;;0.90;99.90;;;;;;4991259;28;20271;-77
2021/01/17 06:44:10;;;;;;;25.15;14.93;;;0.90;99.90;;;;;;4989963;28;20641;-78
2021/01/17 06:46:44;;;;;;;22.65;15.95;;;0.90;99.90;;;;;;4989650;28;20197;-77
2021/01/17 06:49:15;;;;;;;23.30;13.77;;;0.90;99.90;;;;;;4988615;28;20197;-77
2021/01/17 06:51:43;;;;;;;24.83;14.85;;;0.90;99.90;;;;;;4991200;28;20210;-77
2021/01/17 06:54:10;;;;;;;21.58;14.90;;;1.00;99.90;;;;;;4994801;28;20181;-77
2021/01/17 06:56:37;;;;;;;27.08;14.98;;;1.00;99.90;;;;;;4990503;28;20171;-78
2021/01/17 06:59:03;;;;;;;25.48;15.18;;;0.90;99.90;;;;;;4991388;28;20190;-78
2021/01/17 07:01:29;;;;;;;25.88;15.00;;;0.90;99.90;;;;;;4973091;28;20237;-78
2021/01/17 07:04:17;;;;;;;28.27;15.68;;;1.00;99.90;;;;;;4990871;28;20198;-78
2021/01/17 07:07:17;;;;;;;23.38;14.93;;;0.90;99.90;;;;;;4995188;28;20202;-78
2021/01/17 07:09:50;;;;;;;23.77;14.20;;;0.90;99.90;;;;;;4991466;28;20179;-78
2021/01/17 07:12:39;;;;;;;22.50;15.10;;;0.90;99.90;;;;;;4990766;28;20641;-78
2021/01/17 07:15:09;;;;;;;23.58;14.52;;;0.90;99.90;;;;;;4991413;28;20197;-78
2021/01/17 07:17:44;;;;;;;23.38;14.95;;;1.00;99.90;;;;;;4990455;28;20630;-78
2021/01/17 07:20:14;;;;;;;24.98;14.98;;;1.00;99.90;;;;;;4990877;28;20181;-78
2021/01/17 07:22:45;;;;;;;21.35;14.05;;;1.00;99.90;;;;;;4982258;28;20273;-78
2021/01/17 07:25:12;;;;;;;22.63;14.80;;;1.00;99.90;;;;;;4985999;28;20248;-78
2021/01/17 07:28:13;;;;;;;20.52;13.90;;;1.00;99.90;;;;;;4989452;28;20268;-78
2021/01/17 07:30:38;;;;;;;22.92;14.52;;;1.00;99.90;;;;;;4916190;29;20212;-78
2021/01/17 07:33:06;;;;;;;21.57;15.10;;;1.10;99.90;;;;;;4966766;28;20222;-78
2021/01/17 07:35:40;;;;;;;26.83;14.43;;;1.00;99.90;;;;;;4990756;28;20277;-78
2021/01/17 07:38:10;;;;;;;27.60;16.00;;;1.00;99.90;;;;;;4973039;28;20245;-78
2021/01/17 07:40:51;;;;;;;20.80;14.80;;;1.00;99.90;;;;;;4982602;28;20170;-77
2021/01/17 07:43:29;;;;;;;19.85;12.57;;;1.00;99.90;;;;;;4998610;28;20304;-77
2021/01/17 07:46:11;;;;;;;24.50;16.60;;;1.00;99.90;;;;;;4997140;28;20174;-78
2021/01/17 07:48:47;;;;;;;24.63;15.38;;;1.00;99.90;;;;;;4991429;28;20216;-78
2021/01/17 07:51:16;;;;;;;25.80;14.65;;;1.10;99.90;;;;;;4975533;28;20186;-78
2021/01/17 07:54:09;;;;;;;26.85;16.00;;;1.10;99.90;;;;;;4979348;28;20302;-78
2021/01/17 07:56:37;;;;;;;22.67;14.63;;;1.10;99.90;;;;;;4989990;28;20257;-78
2021/01/17 07:59:04;;;;;;;31.25;17.42;;;1.10;99.90;;;;;;4990030;28;20187;-78
2021/01/17 08:01:40;;;;;;;33.65;17.15;;;1.10;99.90;;;;;;4989015;28;20174;-78
2021/01/17 08:04:05;;;;;;;25.80;15.82;;;1.10;99.90;;;;;;4990501;28;20281;-78
2021/01/17 08:06:37;;;;;;;23.77;15.20;;;1.10;99.90;;;;;;4988981;28;20262;-79
2021/01/17 08:09:07;;;;;;;24.73;14.80;;;1.00;99.90;;;;;;4990432;28;20308;-78
2021/01/17 08:11:51;;;;;;;25.10;15.25;;;1.00;99.90;;;;;;4990082;28;20210;-78
2021/01/17 08:14:20;;;;;;;26.42;16.58;;;1.00;99.90;;;;;;4990331;28;20186;-78
2021/01/17 08:17:08;;;;;;;23.05;14.80;;;1.10;99.90;;;;;;4971220;28;20538;-78
2021/01/17 08:19:53;;;;;;;18.63;13.27;;;1.10;99.90;;;;;;4987304;28;20194;-77
2021/01/17 08:22:21;;;;;;;24.02;15.38;;;1.10;99.90;;;;;;4972094;28;20228;-78
2021/01/17 08:24:58;;;;;;;20.98;13.80;;;1.10;99.90;;;;;;4990728;28;20562;-79
2021/01/17 08:27:35;;;;;;;18.75;14.27;;;1.00;99.90;;;;;;4973095;28;20206;-78
2021/01/17 08:30:06;;;;;;;20.38;13.73;;;1.10;99.90;;;;;;4990700;28;20605;-78
2021/01/17 08:32:38;;;;;;;20.23;12.85;;;1.10;99.90;;;;;;4991605;28;20270;-79
2021/01/17 08:35:19;;;;;;;17.92;12.13;;;1.00;99.90;;;;;;4990655;28;20210;-78
2021/01/17 08:37:55;;;;;;;20.83;12.90;;;1.00;99.90;;;;;;4991239;28;20216;-78
2021/01/17 08:40:30;;;;;;;19.55;13.75;;;1.00;99.90;;;;;;4990595;28;20171;-79
2021/01/17 08:42:57;;;;;;;19.80;13.65;;;1.00;99.90;;;;;;4989957;28;20217;-80
2021/01/17 08:45:23;;;;;;;16.17;12.45;;;1.00;99.90;;;;;;4996576;28;20166;-80
2021/01/17 08:48:19;;;;;;;20.23;12.87;;;1.00;99.90;;;;;;4996948;28;20222;-82
2021/01/17 08:51:08;;;;;;;17.73;11.65;;;1.00;99.90;;;;;;4998607;28;20191;-82
2021/01/17 08:53:35;;;;;;;16.65;10.98;;;1.10;99.90;;;;;;4990110;28;20225;-81
2021/01/17 08:56:20;;;;;;;15.23;10.82;;;1.10;99.90;;;;;;4996048;28;20171;-82
2021/01/17 08:58:51;;;;;;;16.92;11.77;;;1.20;99.90;;;;;;4976844;28;20241;-80
2021/01/17 09:01:19;;;;;;;13.32;9.80;;;1.10;99.90;;;;;;4993809;28;20187;-80
2021/01/17 09:03:44;;;;;;;16.67;9.98;;;1.10;99.90;;;;;;4994129;28;20297;-81
2021/01/17 09:06:13;;;;;;;13.60;9.93;;;1.20;99.90;;;;;;4996346;28;20602;-81
2021/01/17 09:08:57;;;;;;;13.38;9.38;;;1.30;99.90;;;;;;4994908;28;20288;-79
2021/01/17 09:11:29;;;;;;;15.15;9.57;;;1.40;99.90;;;;;;4994111;28;20198;-81
2021/01/17 09:14:24;;;;;;;14.45;9.48;;;1.30;99.90;;;;;;4995688;28;20198;-81
2021/01/17 09:16:57;;;;;;;15.32;9.13;;;1.40;99.90;;;;;;4975391;28;20565;-82
2021/01/17 09:22:48;;;;;;;14.93;9.15;;;1.50;99.90;;;;;;4995899;28;20210;-81
2021/01/17 09:25:16;;;;;;;19.15;10.55;;;1.50;99.90;;;;;;5002824;28;20248;-80
2021/01/17 09:27:42;;;;;;;12.75;8.73;;;1.50;99.90;;;;;;4996620;28;20202;-80
2021/01/17 09:30:11;;;;;;;12.23;8.87;;;1.40;99.90;;;;;;4994976;28;20206;-81
2021/01/17 09:32:38;;;;;;;21.70;12.43;;;1.50;99.90;;;;;;4994690;28;20477;-82
2021/01/17 09:35:06;;;;;;;13.80;9.90;;;1.50;99.90;;;;;;4994499;28;20244;-80
2021/01/17 09:37:34;;;;;;;20.27;11.30;;;1.50;99.90;;;;;;4976141;28;20673;-82
2021/01/17 09:40:00;;;;;;;23.75;12.55;;;1.40;99.90;;;;;;4995010;28;20206;-81
2021/01/17 09:42:32;;;;;;;18.40;11.15;;;1.50;99.90;;;;;;4979542;28;20213;-82
2021/01/17 09:45:00;;;;;;;24.45;13.10;;;1.50;99.90;;;;;;5017498;28;20186;-82
2021/01/17 09:47:27;;;;;;;22.00;13.60;;;1.60;99.90;;;;;;4994562;28;20199;-82
2021/01/17 09:49:54;;;;;;;16.65;11.00;;;1.60;99.90;;;;;;5000014;28;20296;-81
2021/01/17 09:52:26;;;;;;;21.23;12.98;;;1.60;99.90;;;;;;5001494;28;20214;-83
2021/01/17 09:58:16;;;;;;;22.95;12.35;;;1.60;99.90;;;;;;4992395;28;20214;-82
2021/01/17 10:01:00;;;;;;;22.40;12.27;;;1.60;99.90;;;;;;4981429;28;20198;-82
2021/01/17 10:03:28;;;;;;;30.23;12.32;;;1.70;99.90;;;;;;4996916;28;20995;-81
2021/01/17 10:05:53;;;;;;;24.92;13.70;;;1.80;99.90;;;;;;4996213;28;20269;-81
2021/01/17 10:08:19;;;;;;;27.00;14.37;;;1.90;99.90;;;;;;4996839;28;20214;-82
2021/01/17 10:10:46;;;;;;;25.37;15.17;;;1.80;99.90;;;;;;4999326;28;20195;-82
2021/01/17 10:13:33;;;;;;;27.85;13.88;;;1.80;99.90;;;;;;5000323;28;20697;-83
2021/01/17 10:16:17;;;;;;;29.63;13.38;;;1.70;99.90;;;;;;4983380;28;20210;-82
2021/01/17 10:23:24;;;;;;;22.38;12.32;;;1.60;99.90;;;;;;4953451;29;20179;-81
2021/01/17 11:25:40;;;;;;;21.33;13.75;;;2.70;99.90;;;;;;5767986;23;20217;-81
2021/01/17 11:28:07;;;;;;;30.35;14.63;;;2.80;99.90;;;;;;5025429;28;20240;-80
2021/01/17 11:30:34;;;;;;;29.20;15.68;;;2.70;99.90;;;;;;5015681;28;20199;-79
2021/01/17 11:33:30;;;;;;;29.08;15.75;;;2.60;99.90;;;;;;5015012;28;20225;-81
2021/01/17 11:36:28;;;;;;;29.02;15.63;;;2.60;99.90;;;;;;5011378;28;20194;-79
2021/01/17 11:38:57;;;;;;;29.60;16.17;;;2.70;99.90;;;;;;5039658;23;20272;-78
2021/01/17 11:41:34;;;;;;;28.52;15.98;;;2.80;99.90;;;;;;4992124;28;20183;-78
2021/01/17 11:44:18;;;;;;;22.52;14.55;;;2.80;99.90;;;;;;5006732;28;20210;-79
2021/01/17 11:46:44;;;;;;;29.88;17.73;;;2.80;99.90;;;;;;5010572;28;20225;-79
2021/01/17 11:49:11;;;;;;;34.20;16.63;;;2.90;99.90;;;;;;5011201;28;20244;-78
2021/01/17 11:51:48;;;;;;;36.03;16.38;;;2.90;99.90;;;;;;5013886;28;20664;-80
2021/01/17 11:54:34;;;;;;;38.72;19.00;;;2.90;99.90;;;;;;5026378;28;20182;-81
2021/01/17 11:57:42;;;;;;;49.83;18.15;;;3.10;99.90;;;;;;5004467;28;20237;-81
2021/01/17 12:00:16;;;;;;;39.78;18.35;;;3.20;99.90;;;;;;5011244;28;20174;-78
2021/01/17 12:02:42;;;;;;;40.22;16.65;;;3.30;99.90;;;;;;5009481;28;20313;-77
2021/01/17 12:05:09;;;;;;;33.97;16.63;;;3.20;99.90;;;;;;4994973;28;20294;-78
2021/01/17 12:07:35;;;;;;;34.85;18.00;;;3.40;99.90;;;;;;4978487;28;20214;-78
2021/01/17 12:10:08;;;;;;;40.63;17.33;;;3.50;99.90;;;;;;4990266;28;20177;-79
2021/01/17 12:12:35;;;;;;;37.35;15.48;;;3.50;99.90;;;;;;5000047;28;20563;-78
2021/01/17 12:15:05;;;;;;;34.47;17.17;;;3.30;99.90;;;;;;5011502;28;20181;-79
2021/01/17 12:17:31;;;;;;;37.95;18.30;;;3.20;99.90;;;;;;5014718;28;20243;-77
2021/01/17 12:19:57;;;;;;;36.87;15.00;;;3.30;99.90;;;;;;5003474;28;20171;-77
2021/01/17 12:22:22;;;;;;;34.63;15.73;;;3.30;99.90;;;;;;4977906;28;20297;-79
2021/01/17 12:24:48;;;;;;;27.23;13.93;;;3.20;99.90;;;;;;4995972;28;20197;-76
2021/01/17 12:27:14;;;;;;;33.87;16.50;;;3.20;99.90;;;;;;4992610;28;20222;-78
2021/01/17 12:29:40;;;;;;;34.97;15.97;;;3.30;99.90;;;;;;4995447;28;20241;-80
2021/01/17 12:32:06;;;;;;;30.10;16.33;;;3.20;99.90;;;;;;4992768;28;20301;-77
2021/01/17 12:34:32;;;;;;;30.17;15.70;;;3.30;99.90;;;;;;4976912;28;20438;-77
2021/01/17 12:36:57;;;;;;;23.47;15.70;;;3.10;99.90;;;;;;4997499;28;20220;-80
2021/01/17 12:39:23;;;;;;;30.10;15.70;;;3.20;99.90;;;;;;5005809;28;20195;-76
2021/01/17 12:41:51;;;;;;;32.53;16.13;;;3.30;99.90;;;;;;5000185;28;20327;-76
2021/01/17 12:44:19;;;;;;;36.95;17.73;;;3.30;99.90;;;;;;5010739;28;20195;-78
2021/01/17 12:46:47;;;;;;;35.78;18.88;;;3.20;99.90;;;;;;5010378;28;20198;-78
2021/01/17 12:49:17;;;;;;;42.55;19.77;;;3.40;99.90;;;;;;4994515;28;20217;-78
2021/01/17 12:51:43;;;;;;;41.50;17.10;;;3.60;99.90;;;;;;4993818;28;20211;-76
2021/01/17 12:54:09;;;;;;;28.80;17.02;;;3.70;99.90;;;;;;4992807;28;20226;-77
2021/01/17 12:56:35;;;;;;;27.85;17.90;;;3.70;99.90;;;;;;4966299;28;20191;-76
2021/01/17 12:59:02;;;;;;;35.22;17.63;;;3.70;99.90;;;;;;5004284;28;20584;-77
2021/01/17 13:01:27;;;;;;;36.22;16.42;;;3.80;99.90;;;;;;5013856;28;20182;-76
2021/01/17 13:03:53;;;;;;;27.70;16.13;;;3.70;99.90;;;;;;4994705;28;20730;-78
2021/01/17 13:06:19;;;;;;;31.63;17.50;;;3.70;99.90;;;;;;4976442;28;20218;-77
2021/01/17 13:08:46;;;;;;;46.43;17.30;;;3.70;99.90;;;;;;4990984;28;20216;-76
2021/01/17 13:11:14;;;;;;;29.65;16.70;;;3.70;99.90;;;;;;4993842;28;20177;-76
2021/01/17 13:13:41;;;;;;;24.08;15.20;;;3.80;99.90;;;;;;5002032;28;20234;-77
2021/01/17 13:16:16;;;;;;;30.90;15.73;;;3.80;99.90;;;;;;4993508;28;20201;-77
2021/01/17 13:18:42;;;;;;;22.63;13.57;;;4.00;99.90;;;;;;5002083;28;20696;-77
2021/01/17 13:21:07;;;;;;;25.92;13.25;;;4.00;99.90;;;;;;4992230;28;20270;-76
2021/01/17 13:23:33;;;;;;;28.30;14.43;;;3.80;99.90;;;;;;4993616;28;20309;-78
2021/01/17 13:25:59;;;;;;;30.03;13.80;;;3.80;99.90;;;;;;4995317;28;20207;-79
2021/01/17 13:28:26;;;;;;;28.67;14.73;;;3.90;99.90;;;;;;5010417;28;20511;-77
2021/01/17 13:30:52;;;;;;;27.65;12.05;;;3.90;99.90;;;;;;4993852;28;20978;-76
2021/01/17 13:33:18;;;;;;;21.97;13.07;;;3.90;99.90;;;;;;4992654;28;20222;-77
2021/01/17 13:35:46;;;;;;;22.07;11.90;;;4.00;99.90;;;;;;4993492;28;20429;-77
2021/01/17 13:38:12;;;;;;;15.90;10.10;;;3.70;99.90;;;;;;4993613;28;20832;-76
2021/01/17 13:40:43;;;;;;;21.33;11.57;;;3.80;99.90;;;;;;4994498;28;20292;-77
2021/01/17 13:43:12;;;;;;;22.13;11.60;;;3.80;99.90;;;;;;5007397;28;20279;-77
2021/01/17 13:45:38;;;;;;;24.02;12.32;;;3.90;99.90;;;;;;4997092;28;20202;-77
2021/01/17 13:48:05;;;;;;;21.25;10.70;;;3.90;99.90;;;;;;5000575;28;20218;-77
2021/01/17 13:50:32;;;;;;;15.15;10.00;;;4.00;99.90;;;;;;4993448;28;20206;-77
2021/01/17 13:52:58;;;;;;;15.63;8.68;;;4.00;99.90;;;;;;5006484;28;20650;-77
2021/01/17 13:55:24;;;;;;;25.50;11.10;;;4.00;99.90;;;;;;4993307;28;20253;-77
2021/01/17 13:57:50;;;;;;;21.17;10.10;;;4.00;99.90;;;;;;4993081;28;20226;-77
2021/01/17 14:00:19;;;;;;;21.93;10.70;;;4.00;99.90;;;;;;4992802;28;20533;-77
2021/01/17 14:02:46;;;;;;;25.60;12.05;;;3.90;99.90;;;;;;4992189;28;20268;-78
2021/01/17 14:05:13;;;;;;;22.73;10.75;;;4.00;99.90;;;;;;4992795;28;20508;-78